»·PEaware :: N982CA KSNA-KSBA

N982CA :: KSNA-KSBA

FLIGHT INFORMATION

Flight Status: Arrived
Operator: Privately registered:
United States
More flights under this callsign
Pilot: Anonymous 15639 (15639)
Aircraft: Unknown
(DA62)
More flights by this aircraft type
Origin: KSNA John Wayne-Orange Co
United States
Destination: KSBA Santa Barbara Mun
United States
More flights between these airports :: More routes between these airports
Route: SLI V23 LAX V299 VTU VTU282R KWANG
File this flight plan on PilotEdge
Remarks: TEC route CSTN21
Altitude:
(Current/Filed)
6,000ft
Speed:
(Current/Filed)
175kts
Departed: 29-Jun-18 07:44 PM
Arrived: 29-Jun-18 08:31 PM
Distance/Time
Traveled:
108nm/0:47
Distance/Time
To Go:
Arrived

Flight Plot

Page will automatically refresh every two minutes.


Map Options




Map Legend


Flown Route
Filed Route
Departure Airport
Arrival Airport
Navaid (VOR, NDB)
Fix

Horizontal Profiles

Position Reports

Time Latitude Longitude Heading Altitude Ground
Speed
29-Jun-18 19:22 33.672219 -117.873701 206 60ft 0kts
29-Jun-18 19:23 33.672219 -117.873701 206 60ft 0kts
29-Jun-18 19:24 33.672219 -117.873701 206 60ft 0kts
29-Jun-18 19:25 33.672219 -117.873701 206 60ft 0kts
29-Jun-18 19:26 33.672219 -117.873701 206 60ft 0kts
29-Jun-18 19:27 33.672219 -117.873701 206 60ft 0kts
29-Jun-18 19:28 33.672219 -117.873701 206 60ft 0kts
29-Jun-18 19:29 33.672219 -117.873701 206 60ft 0kts
29-Jun-18 19:30 33.672219 -117.873701 206 60ft 0kts
29-Jun-18 19:31 33.672219 -117.873701 206 60ft 0kts
29-Jun-18 19:32 33.672219 -117.873701 206 60ft 0kts
29-Jun-18 19:33 33.672219 -117.873701 206 60ft 0kts
29-Jun-18 19:34 33.672219 -117.873701 206 60ft 0kts
29-Jun-18 19:35 33.672219 -117.873701 206 60ft 0kts
29-Jun-18 19:36 33.672219 -117.873701 206 60ft 0kts
29-Jun-18 19:37 33.671960 -117.873421 119 60ft 0kts
29-Jun-18 19:38 33.671960 -117.873421 119 60ft 0kts
29-Jun-18 19:39 33.671960 -117.873421 119 60ft 0kts
29-Jun-18 19:40 33.672544 -117.872314 27 60ft 12kts
29-Jun-18 19:41 33.676404 -117.869836 34 60ft 16kts
29-Jun-18 19:42 33.680138 -117.867681 31 60ft 13kts
29-Jun-18 19:43 33.680272 -117.865861 207 60ft 12kts
29-Jun-18 19:44 33.663210 -117.879026 235 550ft 102kts
29-Jun-18 19:45 33.652381 -117.909924 243 1457ft 111kts
29-Jun-18 19:46 33.639461 -117.943751 241 2442ft 113kts
29-Jun-18 19:47 33.632481 -117.979890 305 3378ft 127kts
29-Jun-18 19:48 33.665285 -117.996694 340 4350ft 130kts
29-Jun-18 19:49 33.699022 -118.012751 339 5319ft 131kts
29-Jun-18 19:50 33.733156 -118.029624 339 6006ft 150kts
29-Jun-18 19:51 33.775899 -118.051116 334 5997ft 173kts
29-Jun-18 19:52 33.795366 -118.102902 287 5998ft 173kts
29-Jun-18 19:53 33.809744 -118.158477 286 6004ft 174kts
29-Jun-18 19:54 33.823336 -118.211958 287 5996ft 162kts
29-Jun-18 19:55 33.836377 -118.263382 287 5997ft 160kts
29-Jun-18 19:56 33.849325 -118.314544 288 5998ft 159kts
29-Jun-18 19:57 33.868041 -118.361614 316 6000ft 159kts
29-Jun-18 19:58 33.900801 -118.397257 317 5998ft 159kts
29-Jun-18 19:59 33.933154 -118.433860 296 5995ft 159kts
29-Jun-18 20:00 33.949601 -118.483463 291 5997ft 159kts
29-Jun-18 20:01 33.965516 -118.533205 291 5998ft 160kts
29-Jun-18 20:03 33.981489 -118.583325 291 5998ft 160kts
29-Jun-18 20:04 33.997408 -118.633381 291 5999ft 159kts
29-Jun-18 20:05 34.013259 -118.683292 291 6002ft 159kts
29-Jun-18 20:06 34.029107 -118.733346 291 6003ft 160kts
29-Jun-18 20:07 34.044226 -118.784004 289 5996ft 161kts
29-Jun-18 20:08 34.057968 -118.835253 289 5997ft 160kts
29-Jun-18 20:09 34.071688 -118.886530 289 5998ft 160kts
29-Jun-18 20:10 34.085346 -118.937676 289 5998ft 160kts
29-Jun-18 20:11 34.099475 -118.988375 296 5998ft 159kts
29-Jun-18 20:11 34.115339 -119.028424 296 6007ft 158kts
29-Jun-18 20:13 34.137766 -119.084385 296 6005ft 158kts
29-Jun-18 20:14 34.156961 -119.132256 296 6003ft 158kts
29-Jun-18 20:15 34.176037 -119.179881 296 6001ft 157kts
29-Jun-18 20:16 34.195151 -119.227439 296 6000ft 157kts
29-Jun-18 20:16 34.210969 -119.267035 296 6000ft 156kts
29-Jun-18 20:17 34.229801 -119.314300 296 5999ft 156kts
29-Jun-18 20:18 34.248565 -119.361487 296 5999ft 156kts
29-Jun-18 20:19 34.267362 -119.408783 296 5999ft 156kts
29-Jun-18 20:20 34.286264 -119.456396 296 5544ft 160kts
29-Jun-18 20:21 34.305526 -119.504993 295 4537ft 158kts
29-Jun-18 20:22 34.323864 -119.552066 294 3700ft 148kts
29-Jun-18 20:23 34.340731 -119.595564 294 2980ft 139kts
29-Jun-18 20:24 34.357049 -119.637722 293 2270ft 138kts
29-Jun-18 20:25 34.372045 -119.676483 293 2101ft 115kts
29-Jun-18 20:26 34.385445 -119.710619 293 2084ft 111kts
29-Jun-18 20:27 34.396230 -119.741579 292 1643ft 90kts
29-Jun-18 20:28 34.406181 -119.767593 290 1144ft 83kts
29-Jun-18 20:29 34.416882 -119.792695 301 777ft 84kts
29-Jun-18 20:30 34.427903 -119.817287 277 373ft 84kts
29-Jun-18 20:31 34.427761 -119.841277 261 17ft 13kts
29-Jun-18 20:32 34.426840 -119.841436 165 17ft 0kts

Navigation Log

Ident Type
1. KSNA Airport
2. SLI Navaid
3. POPPR Fix
4. HERMO Fix
5. LAX Navaid
6. SADDE Fix
7. VTU Navaid
8. KWANG Fix
9. KSBA Airport